createdAt,value
2023-01-20T00:01:07.494Z,6
2023-01-20T00:06:05.910Z,5.9
2023-01-20T00:11:04.362Z,5.9
2023-01-20T00:16:03.141Z,6
2023-01-20T00:21:01.555Z,6
2023-01-20T00:25:59.940Z,6.1
2023-01-20T00:30:58.457Z,6.1
2023-01-20T00:35:56.739Z,6.2
2023-01-20T00:40:55.195Z,6.1
2023-01-20T00:45:53.691Z,6.2
2023-01-20T00:50:52.293Z,6.3
2023-01-20T00:55:50.511Z,6.2
2023-01-20T01:00:48.806Z,6
2023-01-20T01:05:46.988Z,5.9
2023-01-20T01:10:45.283Z,5.9
2023-01-20T01:15:43.505Z,5.9
2023-01-20T01:20:42.066Z,6.1
2023-01-20T01:25:40.534Z,6.3
2023-01-20T01:30:39.009Z,6.5
2023-01-20T01:35:37.721Z,6.7
2023-01-20T01:40:36.251Z,6.7
2023-01-20T01:45:34.829Z,6.8
2023-01-20T01:50:33.324Z,6.9
2023-01-20T01:55:31.708Z,6.9
2023-01-20T02:00:30.025Z,6.9
2023-01-20T02:05:28.320Z,6.9
2023-01-20T02:10:26.525Z,6.9
2023-01-20T02:15:24.959Z,6.9
2023-01-20T02:20:23.455Z,7
2023-01-20T02:25:21.849Z,7
2023-01-20T02:30:20.232Z,7
2023-01-20T02:35:18.573Z,7
2023-01-20T02:40:17.035Z,7.1
2023-01-20T02:45:15.825Z,7.2
2023-01-20T02:50:14.075Z,7.3
2023-01-20T02:55:12.905Z,7.3
2023-01-20T03:00:11.023Z,7.4
2023-01-20T03:05:09.469Z,7.4
2023-01-20T03:10:08.334Z,7.4
2023-01-20T03:15:07.164Z,7.4
2023-01-20T03:20:05.602Z,7.4
2023-01-20T03:25:04.046Z,7.5
2023-01-20T03:30:02.435Z,7.5
2023-01-20T03:35:00.884Z,7.6
2023-01-20T03:39:59.402Z,7.6
2023-01-20T03:44:58.098Z,7.6
2023-01-20T03:49:56.586Z,7.5
2023-01-20T03:54:55.843Z,7.5
2023-01-20T03:59:53.830Z,7.5
2023-01-20T04:04:52.265Z,7.5
2023-01-20T04:09:50.710Z,7.4
2023-01-20T04:14:49.107Z,7.3
2023-01-20T04:19:47.577Z,7.3
2023-01-20T04:24:46.026Z,7.3
2023-01-20T04:29:44.394Z,7.2
2023-01-20T04:34:42.841Z,7.2
2023-01-20T04:39:41.224Z,7
2023-01-20T04:44:39.483Z,7
2023-01-20T04:49:37.855Z,6.9
2023-01-20T04:54:36.117Z,6.8
2023-01-20T04:59:34.295Z,6.7
2023-01-20T05:04:32.591Z,6.6
2023-01-20T05:09:30.848Z,6.4
2023-01-20T05:14:29.608Z,6.2
2023-01-20T05:19:27.784Z,6.1
2023-01-20T05:24:26.074Z,6
2023-01-20T05:29:24.559Z,6
2023-01-20T05:34:23.005Z,5.9
2023-01-20T05:39:21.516Z,6.1
2023-01-20T05:44:19.989Z,6.1
2023-01-20T05:49:18.283Z,6.1
2023-01-20T05:54:16.695Z,6.1
2023-01-20T05:59:15.389Z,6
2023-01-20T06:04:13.800Z,6.1
2023-01-20T06:09:12.300Z,6.1
2023-01-20T06:14:10.815Z,6.1
2023-01-20T06:19:09.034Z,6.2
2023-01-20T06:24:07.660Z,6.3
2023-01-20T06:29:06.148Z,6.4
2023-01-20T06:34:04.754Z,6.5
2023-01-20T06:39:03.167Z,6.6
2023-01-20T06:44:01.443Z,6.6
2023-01-20T06:49:00.039Z,6.9
2023-01-20T06:53:58.534Z,7.1
2023-01-20T06:58:57.017Z,7.3
2023-01-20T07:03:55.492Z,7.4
2023-01-20T07:08:54.029Z,7.3
2023-01-20T07:13:52.313Z,7.2
2023-01-20T07:18:50.759Z,7.1
2023-01-20T07:23:49.286Z,7.1
2023-01-20T07:28:47.524Z,6.9
2023-01-20T07:33:45.934Z,7
2023-01-20T07:38:44.231Z,7
2023-01-20T07:43:42.751Z,7.2
2023-01-20T07:48:41.252Z,7.3
2023-01-20T07:53:40.019Z,7.6
2023-01-20T07:58:38.585Z,7.9
2023-01-20T08:03:36.912Z,7.8
2023-01-20T08:08:35.043Z,7.8
2023-01-20T08:13:33.569Z,8
2023-01-20T08:18:32.301Z,8.3
2023-01-20T08:23:31.159Z,8.6
2023-01-20T08:28:30.020Z,9.4
2023-01-20T08:33:29.287Z,10.3
2023-01-20T08:38:28.255Z,10.9
2023-01-20T08:43:27.478Z,11.6
2023-01-20T08:48:26.499Z,12.4
2023-01-20T08:53:24.897Z,12.2
2023-01-20T08:58:25.278Z,12.6
2023-01-20T09:03:21.945Z,12.7
2023-01-20T09:08:19.572Z,11.4
2023-01-20T09:13:16.762Z,10.3
2023-01-20T09:18:14.645Z,9.7
2023-01-20T09:23:12.822Z,9.3
2023-01-20T09:28:10.806Z,9
2023-01-20T09:33:09.548Z,9.1
2023-01-20T09:38:07.862Z,9.2
2023-01-20T09:43:06.094Z,8.8
2023-01-20T09:48:03.846Z,8.3
2023-01-20T09:48:20.881Z,8.2
2023-01-20T09:53:16.543Z,8.3
2023-01-20T09:58:14.794Z,8.1
2023-01-20T10:03:12.066Z,8.1
2023-01-20T10:08:10.672Z,8.3
2023-01-20T10:13:08.737Z,8.3
2023-01-20T10:18:07.124Z,8.4
2023-01-20T10:23:05.878Z,8.6
2023-01-20T10:28:04.350Z,8.5
2023-01-20T10:33:17.678Z,8.3
2023-01-20T10:38:13.442Z,8.1
2023-01-20T10:43:11.525Z,7.9
2023-01-20T10:48:09.538Z,7.6
2023-01-20T10:53:07.975Z,7.4
2023-01-20T10:58:05.990Z,7
2023-01-20T11:03:04.298Z,6.4
2023-01-20T11:08:02.414Z,6.2
2023-01-20T11:13:00.634Z,6.1
2023-01-20T11:17:59.101Z,6.1
2023-01-20T11:22:57.263Z,6.1
2023-01-20T11:27:55.255Z,5.8
2023-01-20T11:32:53.703Z,5.7
